createdAt,value
2018-12-14T00:00:54.325Z,102046.81
2018-12-14T00:04:01.509Z,102050.61
2018-12-14T00:07:08.730Z,102055.27
2018-12-14T00:10:27.573Z,102056.97
2018-12-14T00:13:34.365Z,102059.90
2018-12-14T00:16:41.262Z,102058.66
2018-12-14T00:19:48.177Z,102052.73
2018-12-14T00:23:07.470Z,102061.17
2018-12-14T00:26:14.245Z,102064.95
2018-12-14T00:29:20.907Z,102066.27
2018-12-14T00:32:40.598Z,102070.90
2018-12-14T00:35:48.497Z,102071.30
2018-12-14T00:38:55.517Z,102066.67
2018-12-14T00:42:02.477Z,102070.90
2018-12-14T00:45:21.663Z,102068.34
2018-12-14T00:48:29.121Z,102075.12
2018-12-14T00:51:35.882Z,102076.81
2018-12-14T00:54:42.584Z,102076.38
2018-12-14T00:57:49.572Z,102079.39
2018-12-14T01:01:08.825Z,102081.11
2018-12-14T01:04:15.698Z,102077.28
2018-12-14T01:07:22.382Z,102080.66
2018-12-14T01:10:41.474Z,102080.23
2018-12-14T01:13:48.153Z,102078.97
2018-12-14T01:16:54.949Z,102082.83
2018-12-14T01:20:14.125Z,102081.95
2018-12-14T01:23:20.765Z,102082.35
2018-12-14T01:26:27.631Z,102083.65
2018-12-14T01:29:47.198Z,102082.78
2018-12-14T01:32:53.884Z,102085.73
2018-12-14T01:36:00.639Z,102083.12
2018-12-14T01:39:08.439Z,102087.36
2018-12-14T01:42:15.186Z,102088.72
2018-12-14T01:45:21.872Z,102084.89
2018-12-14T01:48:41.093Z,102081.92
2018-12-14T01:51:47.850Z,102078.08
2018-12-14T01:54:54.197Z,102070.99
2018-12-14T01:58:01.386Z,102075.61
2018-12-14T02:01:08.474Z,102074.34
2018-12-14T02:04:15.774Z,102067.14
2018-12-14T02:07:22.538Z,102066.67
2018-12-14T02:10:29.218Z,102063.72
2018-12-14T02:13:36.342Z,102060.82
2018-12-14T02:16:55.463Z,102056.18
2018-12-14T02:20:02.224Z,102058.73
2018-12-14T02:23:08.942Z,102058.33
2018-12-14T02:26:15.630Z,102057.47
2018-12-14T02:29:22.453Z,102060.02
2018-12-14T02:32:29.521Z,102054.96
2018-12-14T02:35:36.188Z,102054.52
2018-12-14T02:38:55.426Z,102051.13
2018-12-14T02:42:01.702Z,102054.08
2018-12-14T02:45:09.553Z,102056.65
2018-12-14T02:48:16.223Z,102054.08
2018-12-14T02:51:23.268Z,102047.27
2018-12-14T02:54:42.515Z,102053.20
2018-12-14T02:57:49.356Z,102049.84
2018-12-14T03:00:56.029Z,102049.84
2018-12-14T03:04:15.227Z,102046.05
2018-12-14T03:07:24.879Z,102046.48
2018-12-14T03:10:31.808Z,102048.59
2018-12-14T03:13:39.441Z,102055.33
2018-12-14T03:16:46.761Z,102051.55
2018-12-14T03:19:55.053Z,102049.44
2018-12-14T03:23:01.770Z,102055.27
2018-12-14T03:26:08.976Z,102066.78
2018-12-14T03:29:15.710Z,102066.77
2018-12-14T03:32:22.363Z,102066.31
2018-12-14T03:35:43.591Z,102068.03
2018-12-14T03:38:50.293Z,102066.30
2018-12-14T03:41:57.366Z,102067.59
2018-12-14T03:45:13.209Z,102069.70
2018-12-14T03:48:32.640Z,102065.48
2018-12-14T03:51:39.779Z,102063.81
2018-12-14T03:54:46.614Z,102070.05
2018-12-14T03:57:54.764Z,102068.34
2018-12-14T04:01:01.536Z,102060.73
2018-12-14T04:04:08.310Z,102056.95
2018-12-14T04:07:15.259Z,102066.25
2018-12-14T04:10:22.569Z,102057.39
2018-12-14T04:13:41.401Z,102054.39
2018-12-14T04:16:48.495Z,102056.92
2018-12-14T04:19:55.160Z,102053.06
2018-12-14T04:23:02.082Z,102041.73
2018-12-14T04:26:21.377Z,102030.33
2018-12-14T04:29:28.274Z,102038.78
2018-12-14T04:32:35.047Z,102056.95
2018-12-14T04:35:56.315Z,102049.33
2018-12-14T04:39:04.713Z,102049.25
2018-12-14T04:42:11.492Z,102052.30
2018-12-14T04:45:30.386Z,102049.78
2018-12-14T04:48:37.271Z,102048.04
2018-12-14T04:51:44.272Z,102057.33
2018-12-14T04:54:51.064Z,102056.44
2018-12-14T04:57:58.333Z,102052.27
2018-12-14T05:01:14.021Z,102050.94
2018-12-14T05:04:33.907Z,102052.72
2018-12-14T05:07:40.801Z,102055.22
2018-12-14T05:10:47.611Z,102047.13
2018-12-14T05:13:54.919Z,102043.32
2018-12-14T05:17:20.129Z,102039.52
2018-12-14T05:20:27.086Z,102048.80
2018-12-14T05:23:33.860Z,102047.53
2018-12-14T05:26:53.858Z,102052.15
2018-12-14T05:30:01.387Z,102053.45
2018-12-14T05:33:08.371Z,102047.11
2018-12-14T05:36:15.025Z,102050.83
2018-12-14T05:39:34.378Z,102049.63
2018-12-14T05:42:41.269Z,102049.20
2018-12-14T05:45:48.834Z,102050.92
2018-12-14T05:48:55.501Z,102050.48
2018-12-14T05:52:02.462Z,102051.34
2018-12-14T05:55:23.501Z,102052.17
2018-12-14T05:58:30.587Z,102054.64
2018-12-14T06:01:37.268Z,102047.89
2018-12-14T06:04:56.204Z,102054.69
2018-12-14T06:08:02.133Z,102052.60
2018-12-14T06:11:08.888Z,102056.81
2018-12-14T06:14:15.652Z,102060.55
2018-12-14T06:17:34.569Z,102055.95
2018-12-14T06:20:41.418Z,102057.59
2018-12-14T06:23:48.177Z,102060.59
2018-12-14T06:27:07.253Z,102051.31
2018-12-14T06:30:27.151Z,102043.72
2018-12-14T06:33:34.246Z,102046.17
2018-12-14T06:36:47.778Z,102052.50
2018-12-14T06:39:54.435Z,102058.41
2018-12-14T06:43:15.588Z,102067.80
2018-12-14T06:46:34.885Z,102073.26
2018-12-14T06:49:41.563Z,102069.06
2018-12-14T06:52:49.025Z,102062.20
2018-12-14T06:55:55.691Z,102064.73
2018-12-14T06:59:14.860Z,102082.02
2018-12-14T07:02:21.849Z,102087.94
2018-12-14T07:05:28.810Z,102095.57
2018-12-14T07:08:35.560Z,102094.70
2018-12-14T07:11:54.718Z,102109.05
2018-12-14T07:15:01.705Z,102122.56
2018-12-14T07:18:08.368Z,102112.84
2018-12-14T07:21:27.403Z,102119.20
2018-12-14T07:24:34.055Z,102116.66
2018-12-14T07:27:54.873Z,102120.77
2018-12-14T07:31:01.630Z,102123.30
2018-12-14T07:34:08.301Z,102120.00
2018-12-14T07:37:14.973Z,102123.39
2018-12-14T07:40:21.629Z,102120.44
2018-12-14T07:43:28.615Z,102128.02
2018-12-14T07:46:48.289Z,102127.20
2018-12-14T07:50:09.502Z,102129.72
2018-12-14T07:53:16.263Z,102133.07
2018-12-14T07:56:23.030Z,102141.54
2018-12-14T07:59:28.958Z,102141.11
2018-12-14T08:02:47.829Z,102141.50
2018-12-14T08:05:54.482Z,102145.76
2018-12-14T08:09:13.286Z,102149.55
2018-12-14T08:12:22.142Z,102153.34
2018-12-14T08:15:30.146Z,102156.73
2018-12-14T08:18:54.654Z,102153.35
2018-12-14T08:22:01.409Z,102152.95
2018-12-14T08:25:08.589Z,102155.86
2018-12-14T08:28:15.238Z,102163.48
2018-12-14T08:31:34.545Z,102166.05
2018-12-14T08:34:41.339Z,102168.58
2018-12-14T08:37:48.103Z,102164.79
2018-12-14T08:41:07.259Z,102174.50
2018-12-14T08:44:13.932Z,102173.22
2018-12-14T08:47:32.743Z,102175.33
2018-12-14T08:50:39.669Z,102190.63
2018-12-14T08:53:46.658Z,102193.96
2018-12-14T08:56:53.309Z,102196.83
2018-12-14T08:59:59.974Z,102194.83
2018-12-14T09:03:06.734Z,102199.80
2018-12-14T09:06:14.135Z,102195.69
2018-12-14T09:09:20.911Z,102202.88
2018-12-14T09:12:27.907Z,102207.50
2018-12-14T09:15:47.114Z,102212.98
2018-12-14T09:18:54.005Z,102214.27
2018-12-14T09:22:01.096Z,102219.80
2018-12-14T09:25:08.213Z,102215.55
2018-12-14T09:28:14.974Z,102218.54
2018-12-14T09:31:22.655Z,102223.67
2018-12-14T09:34:29.510Z,102224.11
2018-12-14T09:37:45.163Z,102220.31
2018-12-14T09:40:51.811Z,102228.39
2018-12-14T09:44:10.757Z,102228.72
2018-12-14T09:47:30.602Z,102227.88
2018-12-14T09:50:37.354Z,102224.58
2018-12-14T09:53:44.006Z,102226.67
2018-12-14T09:56:50.654Z,102227.12
2018-12-14T09:59:57.294Z,102224.22
2018-12-14T10:03:04.150Z,102219.51
2018-12-14T10:06:23.416Z,102222.41
2018-12-14T10:09:30.434Z,102221.59
2018-12-14T10:12:37.078Z,102231.70
2018-12-14T10:15:59.625Z,102226.24
2018-12-14T10:19:06.592Z,102232.17
2018-12-14T10:22:13.391Z,102225.42
2018-12-14T10:25:20.299Z,102226.31
2018-12-14T10:28:27.036Z,102225.39
2018-12-14T10:31:46.157Z,102223.30
2018-12-14T10:34:53.349Z,102221.16
2018-12-14T10:38:00.105Z,102222.00
2018-12-14T10:41:06.770Z,102229.63
2018-12-14T10:44:14.229Z,102224.59
2018-12-14T10:47:29.770Z,102230.53
2018-12-14T10:50:39.724Z,102228.44
2018-12-14T10:53:45.407Z,102228.39
2018-12-14T10:56:52.805Z,102225.42
2018-12-14T10:59:59.542Z,102231.80
2018-12-14T11:03:06.479Z,102229.66
2018-12-14T11:06:25.890Z,102224.58
2018-12-14T11:09:32.536Z,102225.42
2018-12-14T11:12:39.289Z,102220.41
2018-12-14T11:15:58.339Z,102214.54
2018-12-14T11:19:05.077Z,102219.20
2018-12-14T11:22:11.739Z,102218.38
2018-12-14T11:25:18.398Z,102216.64
2018-12-14T11:28:25.374Z,102204.41
2018-12-14T11:31:32.226Z,102203.59
2018-12-14T11:34:51.094Z,102205.24
2018-12-14T11:37:58.182Z,102209.03
2018-12-14T11:41:05.178Z,102209.47
2018-12-14T11:44:11.926Z,102209.02
2018-12-14T11:47:30.990Z,102211.14
2018-12-14T11:50:37.649Z,102216.22
2018-12-14T11:53:44.402Z,102203.98
2018-12-14T11:57:03.699Z,102198.48
2018-12-14T12:00:13.730Z,102196.84
2018-12-14T12:03:20.635Z,102195.65
2018-12-14T12:06:39.706Z,102201.47
2018-12-14T12:09:46.354Z,102196.78
2018-12-14T12:12:53.113Z,102195.54
2018-12-14T12:16:12.302Z,102203.09
2018-12-14T12:19:19.166Z,102212.38
2018-12-14T12:22:25.924Z,102209.45
2018-12-14T12:25:32.929Z,102209.50
2018-12-14T12:28:52.241Z,102211.48
2018-12-14T12:31:58.902Z,102217.03
2018-12-14T12:35:06.065Z,102214.42
2018-12-14T12:38:26.981Z,102215.29
2018-12-14T12:41:34.180Z,102219.09
2018-12-14T12:44:41.092Z,102212.87
2018-12-14T12:47:47.738Z,102215.77
2018-12-14T12:51:07.193Z,102221.30
2018-12-14T12:54:13.957Z,102215.77
2018-12-14T12:57:21.081Z,102210.66
2018-12-14T13:00:27.846Z,102216.98
2018-12-14T13:03:34.489Z,102217.39
2018-12-14T13:06:40.413Z,102219.52
2018-12-14T13:09:47.062Z,102218.67
2018-12-14T13:12:53.818Z,102222.05
2018-12-14T13:16:18.713Z,102222.05
2018-12-14T13:19:25.367Z,102221.28
2018-12-14T13:22:44.191Z,102224.63
2018-12-14T13:25:50.932Z,102222.11
2018-12-14T13:28:57.833Z,102226.25
2018-12-14T13:32:17.025Z,102227.12
2018-12-14T13:35:25.540Z,102230.55
2018-12-14T13:38:32.215Z,102225.50
2018-12-14T13:41:39.195Z,102220.00
2018-12-14T13:44:58.866Z,102222.12
2018-12-14T13:48:18.572Z,102225.05
2018-12-14T13:51:25.441Z,102224.13
2018-12-14T13:54:32.221Z,102223.37
2018-12-14T13:57:39.174Z,102222.11
2018-12-14T14:00:45.098Z,102223.30
2018-12-14T14:03:51.745Z,102225.47
2018-12-14T14:06:58.399Z,102232.53
2018-12-14T14:10:06.390Z,102228.34
2018-12-14T14:13:25.361Z,102222.83
2018-12-14T14:16:32.037Z,102220.70
2018-12-14T14:19:58.789Z,102225.83
2018-12-14T14:23:05.481Z,102234.69
2018-12-14T14:26:12.142Z,102228.38
2018-12-14T14:29:31.367Z,102232.99
2018-12-14T14:32:38.119Z,102236.34
2018-12-14T14:35:44.990Z,102239.74
2018-12-14T14:39:06.342Z,102243.96
2018-12-14T14:42:25.707Z,102246.06
2018-12-14T14:45:32.449Z,102255.77
2018-12-14T14:48:39.204Z,102251.55
2018-12-14T14:51:58.339Z,102250.28
2018-12-14T14:55:05.981Z,102252.78
2018-12-14T14:58:11.905Z,102251.43
2018-12-14T15:01:31.024Z,102246.86
2018-12-14T15:04:37.694Z,102249.32
2018-12-14T15:07:56.603Z,102253.98
2018-12-14T15:11:03.441Z,102249.32
2018-12-14T15:14:10.094Z,102260.33
2018-12-14T15:17:29.285Z,102260.27
2018-12-14T15:20:36.379Z,102263.25
2018-12-14T15:23:43.027Z,102269.97
2018-12-14T15:26:50.157Z,102271.20
2018-12-14T15:30:09.614Z,102275.45
2018-12-14T15:33:16.274Z,102272.50
2018-12-14T15:36:22.194Z,102273.80
2018-12-14T15:39:28.862Z,102274.53
2018-12-14T15:42:35.631Z,102277.06
2018-12-14T15:45:56.155Z,102275.80
2018-12-14T15:49:02.862Z,102275.02
2018-12-14T15:52:22.302Z,102278.74
2018-12-14T15:55:41.654Z,102278.71
2018-12-14T15:58:48.307Z,102285.42
2018-12-14T16:01:55.210Z,102283.34
2018-12-14T16:05:14.343Z,102284.61
2018-12-14T16:08:20.997Z,102288.84
2018-12-14T16:11:28.073Z,102287.53
2018-12-14T16:14:46.789Z,102290.48
2018-12-14T16:17:53.470Z,102290.05
2018-12-14T16:21:00.108Z,102290.89
2018-12-14T16:24:06.272Z,102295.83
2018-12-14T16:27:13.453Z,102289.88
2018-12-14T16:30:19.394Z,102295.02
2018-12-14T16:33:26.076Z,102293.83
2018-12-14T16:36:47.506Z,102295.03
2018-12-14T16:39:54.278Z,102295.02
2018-12-14T16:43:01.275Z,102294.14
2018-12-14T16:46:08.370Z,102291.20
2018-12-14T16:49:15.377Z,102297.09
2018-12-14T16:52:34.662Z,102293.70
2018-12-14T16:55:41.320Z,102291.99
2018-12-14T16:58:48.237Z,102295.70
2018-12-14T17:01:54.915Z,102297.03
2018-12-14T17:05:14.028Z,102297.91
2018-12-14T17:08:21.222Z,102299.89
2018-12-14T17:11:27.902Z,102300.77
2018-12-14T17:14:35.078Z,102301.27
2018-12-14T17:17:53.914Z,102304.69
2018-12-14T17:21:01.322Z,102307.16
2018-12-14T17:24:08.193Z,102310.95
2018-12-14T17:27:15.042Z,102305.06
2018-12-14T17:30:35.839Z,102308.79
2018-12-14T17:33:42.994Z,102305.42
2018-12-14T17:36:50.106Z,102309.28
2018-12-14T17:39:56.850Z,102307.16
2018-12-14T17:43:12.243Z,102309.64
2018-12-14T17:46:19.122Z,102308.31
2018-12-14T17:49:26.631Z,102318.05
2018-12-14T17:52:33.625Z,102309.61
2018-12-14T17:55:40.362Z,102315.52
2018-12-14T17:59:05.240Z,102318.48
2018-12-14T18:02:12.230Z,102323.96
2018-12-14T18:05:19.131Z,102321.81
2018-12-14T18:08:25.985Z,102326.00
2018-12-14T18:11:45.131Z,102325.17
2018-12-14T18:14:51.794Z,102333.59
2018-12-14T18:17:58.546Z,102324.34
2018-12-14T18:21:05.201Z,102322.11
2018-12-14T18:24:11.970Z,102320.91
2018-12-14T18:27:20.257Z,102326.83
2018-12-14T18:30:39.497Z,102332.30
2018-12-14T18:33:46.257Z,102336.01
2018-12-14T18:36:53.018Z,102340.83
2018-12-14T18:40:12.254Z,102339.84
2018-12-14T18:43:18.176Z,102348.27
2018-12-14T18:46:24.939Z,102353.72
2018-12-14T18:49:31.678Z,102357.12
2018-12-14T18:52:50.553Z,102351.31
2018-12-14T18:55:57.328Z,102351.22
2018-12-14T18:59:04.753Z,102352.02
2018-12-14T19:02:11.515Z,102344.87
2018-12-14T19:05:30.434Z,102363.04
2018-12-14T19:08:37.190Z,102358.74
2018-12-14T19:11:43.943Z,102363.89
2018-12-14T19:15:03.609Z,102366.38
2018-12-14T19:18:10.366Z,102365.51
2018-12-14T19:21:17.310Z,102368.08
2018-12-14T19:24:23.981Z,102370.59
2018-12-14T19:27:31.278Z,102365.11
2018-12-14T19:30:50.238Z,102370.50
2018-12-14T19:33:56.993Z,102380.65
2018-12-14T19:37:03.961Z,102378.87
2018-12-14T19:40:28.526Z,102381.94
2018-12-14T19:43:35.511Z,102380.14
2018-12-14T19:46:42.172Z,102385.61
2018-12-14T19:49:49.583Z,102387.69
2018-12-14T19:52:56.238Z,102391.96
2018-12-14T19:56:15.499Z,102391.06
2018-12-14T19:59:22.251Z,102388.91
2018-12-14T20:02:29.553Z,102394.79
2018-12-14T20:05:36.200Z,102392.77
2018-12-14T20:08:43.282Z,102393.84
2018-12-14T20:11:49.933Z,102391.38
2018-12-14T20:14:56.606Z,102403.63
2018-12-14T20:18:03.500Z,102397.37
2018-12-14T20:21:24.657Z,102396.10
2018-12-14T20:24:31.439Z,102395.95
2018-12-14T20:27:38.277Z,102401.38
2018-12-14T20:30:59.334Z,102400.60
2018-12-14T20:34:06.094Z,102407.75
2018-12-14T20:37:12.753Z,102411.96
2018-12-14T20:40:32.018Z,102415.78
2018-12-14T20:43:38.865Z,102419.09
2018-12-14T20:46:45.548Z,102425.34
2018-12-14T20:50:07.851Z,102416.87
2018-12-14T20:53:14.618Z,102424.93
2018-12-14T20:56:34.115Z,102423.19
2018-12-14T20:59:41.194Z,102425.36
2018-12-14T21:02:47.821Z,102423.95
2018-12-14T21:05:54.674Z,102424.77
2018-12-14T21:09:13.693Z,102424.44
2018-12-14T21:12:20.451Z,102424.84
2018-12-14T21:15:27.110Z,102425.72
2018-12-14T21:18:46.389Z,102426.98
2018-12-14T21:21:53.875Z,102425.13
2018-12-14T21:25:00.550Z,102424.80
2018-12-14T21:28:07.322Z,102435.25
2018-12-14T21:31:14.294Z,102428.56
2018-12-14T21:34:20.942Z,102433.52
2018-12-14T21:37:27.910Z,102437.31
2018-12-14T21:40:34.696Z,102434.84
2018-12-14T21:43:41.455Z,102436.52
2018-12-14T21:46:48.241Z,102440.75
2018-12-14T21:49:54.849Z,102434.31
2018-12-14T21:53:00.866Z,102434.31
2018-12-14T21:56:07.739Z,102430.98
2018-12-14T21:59:14.418Z,102422.55
2018-12-14T22:02:33.651Z,102418.75
2018-12-14T22:05:40.314Z,102422.52
2018-12-14T22:08:47.168Z,102426.81
2018-12-14T22:12:08.757Z,102425.47
2018-12-14T22:15:15.409Z,102420.80
2018-12-14T22:18:22.057Z,102427.14
2018-12-14T22:21:41.445Z,102415.43
2018-12-14T22:24:48.301Z,102419.89
2018-12-14T22:27:54.968Z,102424.53
2018-12-14T22:31:01.631Z,102425.00
2018-12-14T22:34:08.692Z,102426.23
2018-12-14T22:37:15.473Z,102428.30
2018-12-14T22:40:22.125Z,102426.27
2018-12-14T22:43:28.892Z,102426.68
2018-12-14T22:46:48.200Z,102424.86
2018-12-14T22:49:54.852Z,102421.98
2018-12-14T22:53:01.814Z,102421.16
2018-12-14T22:56:21.121Z,102424.61
2018-12-14T22:59:27.765Z,102415.33
2018-12-14T23:02:34.525Z,102416.59
2018-12-14T23:05:53.769Z,102418.60
2018-12-14T23:09:00.422Z,102412.74
2018-12-14T23:12:07.174Z,102411.73
2018-12-14T23:15:13.839Z,102413.88
2018-12-14T23:18:20.513Z,102414.01
2018-12-14T23:21:41.291Z,102413.48
2018-12-14T23:24:47.938Z,102419.31
2018-12-14T23:28:06.849Z,102413.44
2018-12-14T23:31:13.917Z,102418.88
2018-12-14T23:34:20.977Z,102413.80
2018-12-14T23:37:27.682Z,102417.97
2018-12-14T23:40:46.990Z,102414.26
2018-12-14T23:43:53.773Z,102413.44
2018-12-14T23:47:00.522Z,102412.58
2018-12-14T23:50:19.490Z,102406.37
2018-12-14T23:53:26.151Z,102405.44
2018-12-14T23:56:44.945Z,102407.09
2018-12-14T23:59:51.595Z,102410.85
